RYR50XY LFMU-EGGW
Flight info
| Callsign | RYR50XY |
|---|---|
| Flight time | 1h 38m |
| Altitude | 34000 |
| Route | FJR DCT NG DCT MOLEN DCT MTL DCT ETREK DCT MADOT DCT MOPEM DCT CACHI DCT AVLON DCT OKRIX DCT BRY DCT CLM DCT KOPOR DCT PIREG DCT SOSUN DCT SUBIP UM733 UNDUG |
| Aircraft | B738/M-SDE2E3FGHIRWXY/LB1 |
Departure
| Time | 2026-04-22 18:05 |
|---|---|
| Airport | Béziers Vias airport (LFMU) |
Arrival
| Time | 2026-04-22 19:43 |
|---|---|
| Airport | London Luton Airport (EGGW) |
| Time | Latitude | Longitude | Altitude | Speed | Heading |
|---|---|---|---|---|---|
| 2026-04-22 17:47 | 43.32139 | 3.35344 | 57 ft | 0 kts | 184° |
| 2026-04-22 17:58 | 43.32140 | 3.35344 | 57 ft | 2 kts | 184° |
| 2026-04-22 17:58 | 43.32162 | 3.35351 | 52 ft | 4 kts | 227° |
| 2026-04-22 17:59 | 43.32170 | 3.35368 | 51 ft | 4 kts | 274° |
| 2026-04-22 17:59 | 43.32167 | 3.35385 | 53 ft | 1 kts | 293° |
| 2026-04-22 18:01 | 43.32167 | 3.35383 | 57 ft | 1 kts | 291° |
| 2026-04-22 18:01 | 43.32174 | 3.35359 | 54 ft | 5 kts | 292° |
| 2026-04-22 18:01 | 43.32205 | 3.35326 | 56 ft | 7 kts | 347° |
| 2026-04-22 18:02 | 43.32260 | 3.35327 | 58 ft | 9 kts | 3° |
| 2026-04-22 18:02 | 43.32334 | 3.35309 | 54 ft | 13 kts | 311° |
| 2026-04-22 18:02 | 43.32353 | 3.35163 | 55 ft | 19 kts | 273° |
| 2026-04-22 18:02 | 43.32363 | 3.34954 | 58 ft | 24 kts | 275° |
| 2026-04-22 18:03 | 43.32379 | 3.34719 | 58 ft | 26 kts | 275° |
| 2026-04-22 18:03 | 43.32392 | 3.34476 | 54 ft | 25 kts | 274° |
| 2026-04-22 18:03 | 43.32397 | 3.34274 | 61 ft | 16 kts | 252° |
| 2026-04-22 18:03 | 43.32394 | 3.34199 | 59 ft | 2 kts | 348° |
| 2026-04-22 18:04 | 43.32405 | 3.34226 | 58 ft | 4 kts | 73° |
| 2026-04-22 18:04 | 43.32405 | 3.34237 | 59 ft | 1 kts | 89° |
| 2026-04-22 18:04 | 43.32398 | 3.34368 | 57 ft | 45 kts | 95° |
| 2026-04-22 18:04 | 43.32353 | 3.35182 | 50 ft | 123 kts | 94° |
| 2026-04-22 18:05 | 43.32284 | 3.36619 | 285 ft | 167 kts | 96° |
| 2026-04-22 18:05 | 43.32215 | 3.38273 | 1096 ft | 180 kts | 95° |
| 2026-04-22 18:05 | 43.32197 | 3.40014 | 2066 ft | 186 kts | 89° |
| 2026-04-22 18:05 | 43.32725 | 3.41758 | 2359 ft | 218 kts | 49° |
| 2026-04-22 18:06 | 43.33897 | 3.43217 | 2690 ft | 235 kts | 46° |
| 2026-04-22 18:06 | 43.35106 | 3.44847 | 2999 ft | 253 kts | 48° |
| 2026-04-22 18:06 | 43.36334 | 3.46630 | 3683 ft | 259 kts | 49° |
| 2026-04-22 18:06 | 43.37530 | 3.48457 | 4681 ft | 256 kts | 50° |
| 2026-04-22 18:07 | 43.38708 | 3.50326 | 5429 ft | 264 kts | 50° |
| 2026-04-22 18:07 | 43.39900 | 3.52273 | 6201 ft | 268 kts | 50° |
| 2026-04-22 18:07 | 43.41092 | 3.54252 | 7001 ft | 271 kts | 49° |
| 2026-04-22 18:07 | 43.42307 | 3.56283 | 7638 ft | 279 kts | 49° |
| 2026-04-22 18:08 | 43.43551 | 3.58367 | 8368 ft | 283 kts | 48° |
| 2026-04-22 18:08 | 43.44688 | 3.60620 | 9086 ft | 292 kts | 58° |
| 2026-04-22 18:08 | 43.45616 | 3.63134 | 9811 ft | 297 kts | 61° |
| 2026-04-22 18:08 | 43.46509 | 3.65735 | 10436 ft | 306 kts | 61° |
| 2026-04-22 18:09 | 43.47454 | 3.68477 | 10631 ft | 329 kts | 61° |
| 2026-04-22 18:09 | 43.48466 | 3.71372 | 10810 ft | 351 kts | 61° |
| 2026-04-22 18:09 | 43.49580 | 3.74522 | 10990 ft | 372 kts | 61° |
| 2026-04-22 18:09 | 43.50740 | 3.77779 | 11400 ft | 384 kts | 61° |
| 2026-04-22 18:10 | 43.51931 | 3.81110 | 11945 ft | 391 kts | 60° |
| 2026-04-22 18:10 | 43.53108 | 3.84402 | 12918 ft | 383 kts | 60° |
| 2026-04-22 18:10 | 43.54276 | 3.87662 | 13954 ft | 377 kts | 60° |
| 2026-04-22 18:10 | 43.55454 | 3.90945 | 14674 ft | 378 kts | 60° |
| 2026-04-22 18:11 | 43.56621 | 3.94198 | 15337 ft | 381 kts | 60° |
| 2026-04-22 18:11 | 43.57806 | 3.97420 | 15956 ft | 382 kts | 55° |
| 2026-04-22 18:11 | 43.59405 | 4.00309 | 16582 ft | 378 kts | 44° |
| 2026-04-22 18:11 | 43.61187 | 4.02991 | 17248 ft | 380 kts | 43° |
| 2026-04-22 18:12 | 43.62997 | 4.05665 | 17879 ft | 383 kts | 43° |
| 2026-04-22 18:12 | 43.64816 | 4.08370 | 18488 ft | 386 kts | 43° |
| 2026-04-22 18:12 | 43.66023 | 4.10185 | 18837 ft | 388 kts | 43° |
| 2026-04-22 18:12 | 43.68463 | 4.13896 | 19523 ft | 392 kts | 43° |
| 2026-04-22 18:13 | 43.70296 | 4.16711 | 20037 ft | 396 kts | 44° |
| 2026-04-22 18:13 | 43.72140 | 4.19557 | 20542 ft | 399 kts | 44° |
| 2026-04-22 18:13 | 43.73997 | 4.22429 | 21057 ft | 402 kts | 43° |
| 2026-04-22 18:13 | 43.75864 | 4.25320 | 21577 ft | 404 kts | 43° |
| 2026-04-22 18:14 | 43.77742 | 4.28233 | 22081 ft | 407 kts | 43° |
| 2026-04-22 18:14 | 43.79634 | 4.31167 | 22541 ft | 410 kts | 43° |
| 2026-04-22 18:14 | 43.81537 | 4.34119 | 23025 ft | 413 kts | 43° |
| 2026-04-22 18:14 | 43.83460 | 4.37097 | 23486 ft | 416 kts | 41° |
| 2026-04-22 18:15 | 43.85596 | 4.39764 | 23883 ft | 412 kts | 31° |
| 2026-04-22 18:15 | 43.88014 | 4.41870 | 24289 ft | 408 kts | 21° |
| 2026-04-22 18:15 | 43.90610 | 4.43390 | 24705 ft | 404 kts | 15° |
| 2026-04-22 18:15 | 43.93212 | 4.44745 | 25110 ft | 406 kts | 15° |
| 2026-04-22 18:16 | 43.95901 | 4.46141 | 25493 ft | 409 kts | 15° |
| 2026-04-22 18:16 | 43.98568 | 4.47550 | 25849 ft | 412 kts | 16° |
| 2026-04-22 18:16 | 44.01245 | 4.48987 | 26230 ft | 413 kts | 16° |
| 2026-04-22 18:16 | 44.03924 | 4.50438 | 26628 ft | 415 kts | 16° |
| 2026-04-22 18:17 | 44.06619 | 4.51898 | 26991 ft | 417 kts | 16° |
| 2026-04-22 18:17 | 44.09332 | 4.53345 | 27347 ft | 418 kts | 15° |
| 2026-04-22 18:17 | 44.12023 | 4.54768 | 27706 ft | 420 kts | 15° |
| 2026-04-22 18:17 | 44.14762 | 4.56215 | 28064 ft | 422 kts | 15° |
| 2026-04-22 18:18 | 44.17554 | 4.57691 | 28378 ft | 425 kts | 15° |
| 2026-04-22 18:18 | 44.20283 | 4.59139 | 28746 ft | 426 kts | 15° |
| 2026-04-22 18:18 | 44.23052 | 4.60612 | 29118 ft | 427 kts | 15° |
| 2026-04-22 18:18 | 44.25831 | 4.62092 | 29411 ft | 429 kts | 15° |
| 2026-04-22 18:19 | 44.28623 | 4.63581 | 29709 ft | 431 kts | 15° |
| 2026-04-22 18:19 | 44.31427 | 4.65078 | 30017 ft | 432 kts | 15° |
| 2026-04-22 18:19 | 44.34241 | 4.66582 | 30309 ft | 434 kts | 15° |
| 2026-04-22 18:19 | 44.37062 | 4.68092 | 30573 ft | 435 kts | 15° |
| 2026-04-22 18:20 | 44.39887 | 4.69606 | 30844 ft | 435 kts | 15° |
| 2026-04-22 18:20 | 44.42717 | 4.71124 | 31098 ft | 436 kts | 15° |
| 2026-04-22 18:20 | 44.45553 | 4.72647 | 31335 ft | 437 kts | 15° |
| 2026-04-22 18:20 | 44.48396 | 4.74174 | 31554 ft | 438 kts | 15° |
| 2026-04-22 18:21 | 44.51242 | 4.75691 | 31882 ft | 436 kts | 13° |
| 2026-04-22 18:21 | 44.54134 | 4.76741 | 32308 ft | 424 kts | 4° |
| 2026-04-22 18:21 | 44.57039 | 4.77166 | 32748 ft | 416 kts | 357° |
| 2026-04-22 18:21 | 44.59906 | 4.77100 | 33094 ft | 409 kts | 349° |
| 2026-04-22 18:22 | 44.62709 | 4.76526 | 33399 ft | 406 kts | 347° |
| 2026-04-22 18:22 | 44.65488 | 4.75888 | 33704 ft | 405 kts | 347° |
| 2026-04-22 18:22 | 44.68263 | 4.75243 | 33992 ft | 404 kts | 347° |
| 2026-04-22 18:23 | 44.73868 | 4.73957 | 34004 ft | 412 kts | 347° |
| 2026-04-22 18:23 | 44.79547 | 4.72682 | 33999 ft | 413 kts | 347° |
| 2026-04-22 18:24 | 44.88026 | 4.70797 | 33997 ft | 412 kts | 347° |
| 2026-04-22 18:25 | 44.96516 | 4.68903 | 34002 ft | 411 kts | 347° |
| 2026-04-22 18:25 | 45.02167 | 4.67638 | 33997 ft | 411 kts | 347° |
| 2026-04-22 18:26 | 45.10632 | 4.65739 | 34014 ft | 410 kts | 347° |
| 2026-04-22 18:26 | 45.16264 | 4.64472 | 33993 ft | 409 kts | 347° |
| 2026-04-22 18:27 | 45.21883 | 4.63202 | 33994 ft | 408 kts | 347° |
| 2026-04-22 18:27 | 45.27488 | 4.61917 | 33994 ft | 407 kts | 347° |
| 2026-04-22 18:28 | 45.33091 | 4.60630 | 33999 ft | 408 kts | 347° |
| 2026-04-22 18:28 | 45.38696 | 4.59342 | 33987 ft | 408 kts | 346° |
| 2026-04-22 18:29 | 45.44305 | 4.58049 | 33990 ft | 409 kts | 347° |
| 2026-04-22 18:29 | 45.49933 | 4.56750 | 34016 ft | 410 kts | 347° |
| 2026-04-22 18:30 | 45.58359 | 4.54802 | 33997 ft | 411 kts | 346° |
| 2026-04-22 18:31 | 45.64007 | 4.53492 | 33992 ft | 411 kts | 347° |
| 2026-04-22 18:31 | 45.69657 | 4.52179 | 34014 ft | 411 kts | 346° |
| 2026-04-22 18:32 | 45.75307 | 4.50864 | 33991 ft | 411 kts | 346° |
| 2026-04-22 18:32 | 45.80949 | 4.49552 | 33988 ft | 410 kts | 346° |
| 2026-04-22 18:33 | 45.86572 | 4.48241 | 34013 ft | 409 kts | 346° |
| 2026-04-22 18:33 | 45.92200 | 4.46926 | 33998 ft | 409 kts | 346° |
| 2026-04-22 18:34 | 45.97817 | 4.45611 | 33998 ft | 408 kts | 346° |
| 2026-04-22 18:34 | 46.03421 | 4.44296 | 33998 ft | 408 kts | 346° |
| 2026-04-22 18:35 | 46.09024 | 4.42978 | 34011 ft | 408 kts | 346° |
| 2026-04-22 18:35 | 46.14621 | 4.41660 | 33996 ft | 407 kts | 346° |
| 2026-04-22 18:36 | 46.20208 | 4.40340 | 33980 ft | 406 kts | 346° |
| 2026-04-22 18:36 | 46.25777 | 4.39023 | 34052 ft | 404 kts | 346° |
| 2026-04-22 18:37 | 46.31316 | 4.37487 | 34146 ft | 407 kts | 343° |
| 2026-04-22 18:37 | 46.35885 | 4.35879 | 34135 ft | 405 kts | 342° |
| 2026-04-22 18:38 | 46.42263 | 4.33585 | 34127 ft | 403 kts | 342° |
| 2026-04-22 18:38 | 46.47704 | 4.31655 | 34135 ft | 402 kts | 342° |
| 2026-04-22 18:39 | 46.55811 | 4.28799 | 34143 ft | 401 kts | 342° |
| 2026-04-22 18:39 | 46.61238 | 4.26885 | 34135 ft | 401 kts | 342° |
| 2026-04-22 18:40 | 46.66666 | 4.24968 | 34140 ft | 401 kts | 342° |
| 2026-04-22 18:40 | 46.72091 | 4.23048 | 34143 ft | 402 kts | 342° |
| 2026-04-22 18:41 | 46.77567 | 4.21105 | 34146 ft | 403 kts | 342° |
| 2026-04-22 18:41 | 46.82980 | 4.19181 | 34150 ft | 403 kts | 342° |
| 2026-04-22 18:42 | 46.88437 | 4.17237 | 34146 ft | 404 kts | 342° |
| 2026-04-22 18:42 | 46.93900 | 4.15286 | 34160 ft | 404 kts | 343° |
| 2026-04-22 18:43 | 46.99370 | 4.13330 | 34150 ft | 405 kts | 343° |
| 2026-04-22 18:43 | 47.04839 | 4.11370 | 34152 ft | 404 kts | 343° |
| 2026-04-22 18:44 | 47.10153 | 4.08813 | 34154 ft | 401 kts | 335° |
| 2026-04-22 18:44 | 47.15303 | 4.05694 | 34161 ft | 401 kts | 335° |
| 2026-04-22 18:45 | 47.20469 | 4.02570 | 34164 ft | 402 kts | 335° |
| 2026-04-22 18:45 | 47.25652 | 3.99472 | 34164 ft | 402 kts | 335° |
| 2026-04-22 18:46 | 47.29967 | 3.96901 | 34163 ft | 402 kts | 335° |
| 2026-04-22 18:46 | 47.35152 | 3.93808 | 34172 ft | 402 kts | 335° |
| 2026-04-22 18:47 | 47.40331 | 3.90711 | 34173 ft | 401 kts | 335° |
| 2026-04-22 18:47 | 47.45498 | 3.87616 | 34174 ft | 401 kts | 335° |
| 2026-04-22 18:48 | 47.50661 | 3.84515 | 34175 ft | 400 kts | 335° |
| 2026-04-22 18:48 | 47.55826 | 3.81408 | 34189 ft | 400 kts | 335° |
| 2026-04-22 18:49 | 47.60973 | 3.78320 | 34175 ft | 399 kts | 335° |
| 2026-04-22 18:49 | 47.66116 | 3.75236 | 34182 ft | 398 kts | 335° |
| 2026-04-22 18:50 | 47.71249 | 3.72150 | 34185 ft | 397 kts | 335° |
| 2026-04-22 18:50 | 47.76372 | 3.69062 | 34201 ft | 397 kts | 335° |
| 2026-04-22 18:51 | 47.81496 | 3.65966 | 34192 ft | 397 kts | 335° |
| 2026-04-22 18:51 | 47.86622 | 3.62862 | 34194 ft | 398 kts | 335° |
| 2026-04-22 18:52 | 47.91751 | 3.59750 | 34195 ft | 398 kts | 335° |
| 2026-04-22 18:52 | 47.96880 | 3.56632 | 34213 ft | 398 kts | 336° |
| 2026-04-22 18:53 | 48.02015 | 3.53484 | 34210 ft | 399 kts | 336° |
| 2026-04-22 18:53 | 48.07153 | 3.50319 | 34208 ft | 400 kts | 336° |
| 2026-04-22 18:54 | 48.12278 | 3.47157 | 34197 ft | 401 kts | 336° |
| 2026-04-22 18:54 | 48.17447 | 3.43962 | 34217 ft | 402 kts | 336° |
| 2026-04-22 18:55 | 48.22623 | 3.40756 | 34201 ft | 403 kts | 335° |
| 2026-04-22 18:55 | 48.27844 | 3.37514 | 34215 ft | 409 kts | 335° |
| 2026-04-22 18:56 | 48.33110 | 3.34237 | 34212 ft | 410 kts | 335° |
| 2026-04-22 18:56 | 48.38394 | 3.30942 | 34217 ft | 412 kts | 335° |
| 2026-04-22 18:57 | 48.43689 | 3.27616 | 34228 ft | 413 kts | 336° |
| 2026-04-22 18:57 | 48.48988 | 3.24236 | 34223 ft | 414 kts | 336° |
| 2026-04-22 18:58 | 48.54291 | 3.20843 | 34230 ft | 414 kts | 336° |
| 2026-04-22 18:58 | 48.59587 | 3.17452 | 34225 ft | 413 kts | 336° |
| 2026-04-22 18:59 | 48.64880 | 3.14056 | 34239 ft | 413 kts | 336° |
| 2026-04-22 18:59 | 48.70170 | 3.10655 | 34228 ft | 413 kts | 336° |
| 2026-04-22 19:00 | 48.75349 | 3.06940 | 34229 ft | 412 kts | 327° |
| 2026-04-22 19:00 | 48.79849 | 3.01600 | 34230 ft | 410 kts | 321° |
| 2026-04-22 19:01 | 48.84241 | 2.96161 | 34232 ft | 410 kts | 321° |
| 2026-04-22 19:01 | 48.88673 | 2.90701 | 34236 ft | 410 kts | 321° |
| 2026-04-22 19:02 | 48.93111 | 2.85243 | 34239 ft | 410 kts | 321° |
| 2026-04-22 19:02 | 48.97543 | 2.79784 | 34236 ft | 410 kts | 321° |
| 2026-04-22 19:03 | 49.01977 | 2.74310 | 34242 ft | 410 kts | 321° |
| 2026-04-22 19:03 | 49.06411 | 2.68822 | 34249 ft | 411 kts | 322° |
| 2026-04-22 19:04 | 49.10854 | 2.63310 | 34214 ft | 412 kts | 321° |
| 2026-04-22 19:04 | 49.15293 | 2.57782 | 34239 ft | 412 kts | 321° |
| 2026-04-22 19:05 | 49.19740 | 2.52262 | 34237 ft | 412 kts | 321° |
| 2026-04-22 19:05 | 49.24176 | 2.46712 | 34247 ft | 412 kts | 321° |
| 2026-04-22 19:06 | 49.28612 | 2.41150 | 34261 ft | 412 kts | 321° |
| 2026-04-22 19:07 | 49.35275 | 2.32777 | 34264 ft | 414 kts | 321° |
| 2026-04-22 19:07 | 49.39734 | 2.27158 | 34267 ft | 414 kts | 321° |
| 2026-04-22 19:08 | 49.44190 | 2.21530 | 34243 ft | 414 kts | 320° |
| 2026-04-22 19:08 | 49.48630 | 2.15901 | 34257 ft | 413 kts | 320° |
| 2026-04-22 19:09 | 49.53061 | 2.10280 | 34268 ft | 414 kts | 321° |
| 2026-04-22 19:09 | 49.56754 | 2.05584 | 34270 ft | 414 kts | 321° |
| 2026-04-22 19:10 | 49.61949 | 1.98961 | 34270 ft | 415 kts | 321° |
| 2026-04-22 19:10 | 49.66395 | 1.93275 | 34263 ft | 415 kts | 321° |
| 2026-04-22 19:11 | 49.70843 | 1.87575 | 34268 ft | 415 kts | 321° |
| 2026-04-22 19:11 | 49.75290 | 1.81859 | 34266 ft | 416 kts | 321° |
| 2026-04-22 19:12 | 49.79711 | 1.76165 | 34265 ft | 416 kts | 320° |
| 2026-04-22 19:12 | 49.84190 | 1.70380 | 34269 ft | 417 kts | 320° |
| 2026-04-22 19:13 | 49.88636 | 1.64624 | 34275 ft | 417 kts | 320° |
| 2026-04-22 19:13 | 49.93063 | 1.58879 | 34270 ft | 417 kts | 320° |
| 2026-04-22 19:14 | 49.97515 | 1.53088 | 34274 ft | 418 kts | 320° |
| 2026-04-22 19:14 | 50.01930 | 1.47220 | 34276 ft | 418 kts | 319° |
| 2026-04-22 19:15 | 50.05598 | 1.42212 | 34276 ft | 419 kts | 319° |
| 2026-04-22 19:15 | 50.10687 | 1.35246 | 34255 ft | 418 kts | 319° |
| 2026-04-22 19:16 | 50.15060 | 1.29263 | 34278 ft | 418 kts | 319° |
| 2026-04-22 19:16 | 50.19428 | 1.23280 | 34284 ft | 418 kts | 319° |
| 2026-04-22 19:17 | 50.23805 | 1.17270 | 34289 ft | 419 kts | 319° |
| 2026-04-22 19:17 | 50.28186 | 1.11239 | 34285 ft | 420 kts | 319° |
| 2026-04-22 19:18 | 50.32569 | 1.05189 | 34291 ft | 420 kts | 319° |
| 2026-04-22 19:18 | 50.36950 | 0.99127 | 34289 ft | 420 kts | 319° |
| 2026-04-22 19:19 | 50.41289 | 0.93108 | 34279 ft | 413 kts | 319° |
| 2026-04-22 19:19 | 50.45592 | 0.87145 | 34294 ft | 413 kts | 320° |
| 2026-04-22 19:20 | 50.49983 | 0.81314 | 34304 ft | 414 kts | 320° |
| 2026-04-22 19:20 | 50.54393 | 0.75452 | 34034 ft | 420 kts | 320° |
| 2026-04-22 19:20 | 50.56617 | 0.72484 | 33454 ft | 416 kts | 320° |
| 2026-04-22 19:21 | 50.58812 | 0.69560 | 32911 ft | 411 kts | 320° |
| 2026-04-22 19:21 | 50.60983 | 0.66667 | 32400 ft | 408 kts | 320° |
| 2026-04-22 19:21 | 50.63148 | 0.63779 | 31893 ft | 409 kts | 320° |
| 2026-04-22 19:21 | 50.65325 | 0.60871 | 31398 ft | 411 kts | 320° |
| 2026-04-22 19:22 | 50.67509 | 0.57948 | 30908 ft | 413 kts | 320° |
| 2026-04-22 19:22 | 50.69700 | 0.55012 | 30427 ft | 414 kts | 320° |
| 2026-04-22 19:22 | 50.71903 | 0.52054 | 29632 ft | 419 kts | 320° |
| 2026-04-22 19:22 | 50.74137 | 0.49052 | 28859 ft | 424 kts | 321° |
| 2026-04-22 19:23 | 50.76392 | 0.46020 | 28058 ft | 428 kts | 321° |
| 2026-04-22 19:23 | 50.78667 | 0.42956 | 27308 ft | 432 kts | 321° |
| 2026-04-22 19:23 | 50.80961 | 0.39860 | 26564 ft | 435 kts | 321° |
| 2026-04-22 19:23 | 50.83268 | 0.36731 | 25862 ft | 438 kts | 321° |
| 2026-04-22 19:24 | 50.85589 | 0.33585 | 25177 ft | 440 kts | 321° |
| 2026-04-22 19:24 | 50.87913 | 0.30433 | 24514 ft | 438 kts | 321° |
| 2026-04-22 19:24 | 50.90213 | 0.27309 | 23833 ft | 434 kts | 321° |
| 2026-04-22 19:24 | 50.92495 | 0.24204 | 23052 ft | 431 kts | 321° |
| 2026-04-22 19:25 | 50.94762 | 0.21116 | 22298 ft | 428 kts | 321° |
| 2026-04-22 19:25 | 50.97014 | 0.18044 | 21546 ft | 426 kts | 321° |
| 2026-04-22 19:25 | 50.99225 | 0.15026 | 20904 ft | 423 kts | 322° |
| 2026-04-22 19:25 | 51.01420 | 0.12022 | 20675 ft | 409 kts | 322° |
| 2026-04-22 19:26 | 51.03601 | 0.09255 | 20514 ft | 394 kts | 326° |
| 2026-04-22 19:26 | 51.05824 | 0.06770 | 20099 ft | 388 kts | 328° |
| 2026-04-22 19:26 | 51.08088 | 0.04354 | 19659 ft | 385 kts | 328° |
| 2026-04-22 19:26 | 51.10282 | 0.02019 | 19231 ft | 384 kts | 328° |
| 2026-04-22 19:27 | 51.12495 | -0.00366 | 18746 ft | 384 kts | 327° |
| 2026-04-22 19:27 | 51.14725 | -0.02799 | 18389 ft | 381 kts | 327° |
| 2026-04-22 19:27 | 51.16880 | -0.05173 | 18351 ft | 374 kts | 327° |
| 2026-04-22 19:27 | 51.18993 | -0.07515 | 18353 ft | 376 kts | 326° |
| 2026-04-22 19:28 | 51.21153 | -0.09915 | 18360 ft | 380 kts | 326° |
| 2026-04-22 19:28 | 51.23321 | -0.12329 | 18345 ft | 379 kts | 326° |
| 2026-04-22 19:28 | 51.25473 | -0.14731 | 18257 ft | 374 kts | 327° |
| 2026-04-22 19:28 | 51.27602 | -0.17110 | 17847 ft | 372 kts | 326° |
| 2026-04-22 19:29 | 51.29723 | -0.19484 | 17231 ft | 374 kts | 327° |
| 2026-04-22 19:29 | 51.31863 | -0.21881 | 16700 ft | 375 kts | 326° |
| 2026-04-22 19:29 | 51.33990 | -0.24263 | 16574 ft | 380 kts | 326° |
| 2026-04-22 19:29 | 51.36191 | -0.26731 | 16419 ft | 388 kts | 326° |
| 2026-04-22 19:30 | 51.36937 | -0.27569 | 16327 ft | 385 kts | 326° |
| 2026-04-22 19:30 | 51.40542 | -0.31567 | 15885 ft | 375 kts | 331° |
| 2026-04-22 19:30 | 51.42948 | -0.32965 | 15604 ft | 365 kts | 355° |
| 2026-04-22 19:30 | 51.45464 | -0.32911 | 15437 ft | 363 kts | 12° |
| 2026-04-22 19:31 | 51.47851 | -0.31702 | 15377 ft | 358 kts | 27° |
| 2026-04-22 19:31 | 51.50095 | -0.30009 | 15355 ft | 356 kts | 29° |
| 2026-04-22 19:31 | 51.52315 | -0.28250 | 15352 ft | 356 kts | 29° |
| 2026-04-22 19:31 | 51.54538 | -0.26485 | 15345 ft | 357 kts | 29° |
| 2026-04-22 19:32 | 51.56045 | -0.25300 | 15343 ft | 356 kts | 28° |
| 2026-04-22 19:32 | 51.58281 | -0.23557 | 15341 ft | 356 kts | 28° |
| 2026-04-22 19:32 | 51.60528 | -0.21818 | 15090 ft | 363 kts | 28° |
| 2026-04-22 19:32 | 51.62810 | -0.20060 | 14619 ft | 363 kts | 28° |
| 2026-04-22 19:33 | 51.65088 | -0.18307 | 14124 ft | 362 kts | 28° |
| 2026-04-22 19:33 | 51.67389 | -0.16671 | 13572 ft | 361 kts | 19° |
| 2026-04-22 19:33 | 51.69880 | -0.16337 | 12774 ft | 364 kts | 352° |
| 2026-04-22 19:33 | 51.72226 | -0.17688 | 12048 ft | 364 kts | 330° |
| 2026-04-22 19:34 | 51.74142 | -0.20293 | 11310 ft | 362 kts | 308° |
| 2026-04-22 19:34 | 51.75352 | -0.23817 | 10582 ft | 358 kts | 287° |
| 2026-04-22 19:34 | 51.75880 | -0.27711 | 9845 ft | 353 kts | 277° |
| 2026-04-22 19:34 | 51.76198 | -0.31625 | 9057 ft | 350 kts | 270° |
| 2026-04-22 19:35 | 51.76082 | -0.35519 | 8308 ft | 345 kts | 262° |
| 2026-04-22 19:35 | 51.75826 | -0.39360 | 7563 ft | 343 kts | 261° |
| 2026-04-22 19:35 | 51.75552 | -0.43169 | 6825 ft | 341 kts | 261° |
| 2026-04-22 19:35 | 51.75278 | -0.46944 | 6053 ft | 338 kts | 261° |
| 2026-04-22 19:36 | 51.75000 | -0.50688 | 5443 ft | 331 kts | 261° |
| 2026-04-22 19:36 | 51.74726 | -0.54327 | 4909 ft | 322 kts | 261° |
| 2026-04-22 19:36 | 51.74459 | -0.57858 | 4515 ft | 311 kts | 261° |
| 2026-04-22 19:36 | 51.74201 | -0.61274 | 4125 ft | 302 kts | 261° |
| 2026-04-22 19:37 | 51.74073 | -0.64561 | 4003 ft | 286 kts | 275° |
| 2026-04-22 19:37 | 51.74709 | -0.67462 | 3998 ft | 267 kts | 306° |
| 2026-04-22 19:37 | 51.76016 | -0.69371 | 3999 ft | 244 kts | 338° |
| 2026-04-22 19:37 | 51.77564 | -0.69896 | 3982 ft | 217 kts | 10° |
| 2026-04-22 19:38 | 51.79034 | -0.69574 | 4002 ft | 214 kts | 15° |
| 2026-04-22 19:38 | 51.80471 | -0.69127 | 3995 ft | 204 kts | 19° |
| 2026-04-22 19:38 | 51.81684 | -0.68232 | 3973 ft | 182 kts | 54° |
| 2026-04-22 19:38 | 51.82230 | -0.66514 | 4009 ft | 172 kts | 73° |
| 2026-04-22 19:39 | 51.82650 | -0.64680 | 3904 ft | 177 kts | 76° |
| 2026-04-22 19:39 | 51.83016 | -0.62773 | 3674 ft | 176 kts | 78° |
| 2026-04-22 19:39 | 51.83344 | -0.60897 | 3437 ft | 171 kts | 78° |
| 2026-04-22 19:39 | 51.83656 | -0.59074 | 3227 ft | 167 kts | 78° |
| 2026-04-22 19:40 | 51.83964 | -0.57262 | 2990 ft | 166 kts | 79° |
| 2026-04-22 19:40 | 51.84269 | -0.55470 | 2773 ft | 164 kts | 78° |
| 2026-04-22 19:40 | 51.84569 | -0.53711 | 2549 ft | 161 kts | 77° |
| 2026-04-22 19:40 | 51.84866 | -0.51972 | 2321 ft | 160 kts | 77° |
| 2026-04-22 19:41 | 51.85162 | -0.50245 | 2112 ft | 156 kts | 77° |
| 2026-04-22 19:41 | 51.85439 | -0.48633 | 1945 ft | 139 kts | 77° |
| 2026-04-22 19:41 | 51.85677 | -0.47211 | 1743 ft | 127 kts | 77° |
| 2026-04-22 19:41 | 51.85921 | -0.45817 | 1578 ft | 129 kts | 77° |
| 2026-04-22 19:42 | 51.86161 | -0.44389 | 1448 ft | 137 kts | 77° |
| 2026-04-22 19:42 | 51.86418 | -0.42895 | 1169 ft | 138 kts | 75° |
| 2026-04-22 19:42 | 51.86675 | -0.41369 | 927 ft | 142 kts | 75° |
| 2026-04-22 19:42 | 51.86947 | -0.39849 | 754 ft | 139 kts | 76° |
| 2026-04-22 19:43 | 51.87447 | -0.36949 | 522 ft | 112 kts | 74° |
| 2026-04-22 19:43 | 51.87567 | -0.36248 | 519 ft | 48 kts | 75° |
| 2026-04-22 19:43 | 51.87629 | -0.35944 | 515 ft | 20 kts | 47° |
| 2026-04-22 19:44 | 51.87733 | -0.35953 | 515 ft | 10 kts | 336° |
| 2026-04-22 19:44 | 51.87783 | -0.36031 | 516 ft | 10 kts | 291° |
| 2026-04-22 19:44 | 51.87771 | -0.36139 | 517 ft | 10 kts | 256° |
| 2026-04-22 19:44 | 51.87753 | -0.36257 | 517 ft | 12 kts | 252° |
| 2026-04-22 19:45 | 51.87724 | -0.36421 | 518 ft | 19 kts | 255° |
| 2026-04-22 19:45 | 51.87685 | -0.36645 | 520 ft | 22 kts | 254° |
| 2026-04-22 19:45 | 51.87642 | -0.36891 | 525 ft | 22 kts | 254° |
| 2026-04-22 19:45 | 51.87599 | -0.37140 | 521 ft | 23 kts | 255° |
| 2026-04-22 19:46 | 51.87584 | -0.37384 | 521 ft | 21 kts | 291° |
| 2026-04-22 19:46 | 51.87690 | -0.37546 | 519 ft | 21 kts | 303° |
| 2026-04-22 19:46 | 51.87753 | -0.37759 | 522 ft | 21 kts | 295° |
| 2026-04-22 19:46 | 51.87822 | -0.37957 | 522 ft | 20 kts | 318° |
| 2026-04-22 19:47 | 51.87943 | -0.38010 | 522 ft | 18 kts | 16° |
| 2026-04-22 19:47 | 51.88013 | -0.37931 | 522 ft | 7 kts | 73° |
| 2026-04-22 19:47 | 51.87995 | -0.37879 | 522 ft | 3 kts | 128° |
| 2026-04-22 19:47 | 51.87990 | -0.37870 | 522 ft | 0 kts | 128° |